Hlavní strana
METAR-TAF:

METAR-TAF

Letiště :

Gainesville, Florida, Spojené státy americké

zeměpisná šířka: 29-41-31N, zeměpisná délka: 082-16-32W, výška: 46 m

Aktuální stav počasí

Zpráva byla vytvořena před 44 minutami, v 07:53 UTC
Severovýchodní vítr 5 kt
Teplota 13°C
Vlhkost vzduchu 94%
Tlak 1023 hPa
Viditelnost: 9.7 km
Oblačno až skoro zataženo ve výšce 10000 ft
kouřmo

METAR: KGNV 080753Z AUTO 04005KT 6SM BR BKN100 13/12 A3021 RMK AO2 SLP228 T01280122

Čas: 03:37 (08:37 UTC)

Předpověď počasí

Zpráva byla vytvořena před 2 hodinami a 55 minutami, v 05:42 UTC
Předpověď platná od 08 v 06 UTC do 09 v 06 UTC
vítr z různých směrů 3 kt
Viditelnost: 10 km
Polojasno ve výšce 12000 ft
Od 08 v 1400 UTC
Východoseverovýchodní vítr 7 kt
Viditelnost: 10 km
Oblačno až skoro zataženo ve výšce 4000 ft
Od 09 v 0500 UTC
Severní vítr kt
Viditelnost: 8.0 km
Oblačno až skoro zataženo ve výšce 2000 ft
kouřmo

TAF: KGNV 080542Z 0806/0906 VRB03KT P6SM SCT120 FM081400 07007KT P6SM BKN040 FM090500 00000KT 5SM BR BKN020

Stav a předpovědi počasí z více než 4 000 letišť (zprávy METAR a TAF).

Červené a žluté tečky na mapě představují dostupné meteorologické stanice.

Když kurzor umístíte na tečku, zobrazí se název stanice.

Pak kliknutím zobrazíte stav a předpověď počasí.

Chcete-li změnit mapu, kliknutím na zelené tlačítko se znaménkem +mapu přiblížíte, kliknutím na zelené tlačítko se znaménkem – mapu oddálíte a kliknutím na zelené šipky přejdete na sousední mapy.


METAR-TAF: